createdAt,value
2018-02-22T00:00:10.527Z,-3.3
2018-02-22T00:01:30.407Z,-3.2
2018-02-22T00:02:50.282Z,-3.2
2018-02-22T00:04:10.127Z,-3.3
2018-02-22T00:05:30.050Z,-3.4
2018-02-22T00:06:49.920Z,-3.5
2018-02-22T00:08:12.293Z,-3.6
2018-02-22T00:09:32.138Z,-3.7
2018-02-22T00:10:51.977Z,-3.7
2018-02-22T00:12:14.318Z,-3.7
2018-02-22T00:13:51.963Z,-3.8
2018-02-22T00:15:11.843Z,-3.9
2018-02-22T00:16:34.202Z,-3.9
2018-02-22T00:17:54.041Z,-4
2018-02-22T00:19:21.477Z,-4
2018-02-22T00:20:46.421Z,-4.1
2018-02-22T00:22:08.827Z,-4.2
2018-02-22T00:23:33.756Z,-4.2
2018-02-22T00:25:06.335Z,-4.2
2018-02-22T00:26:28.701Z,-4.2
2018-02-22T00:27:51.077Z,-4.3
2018-02-22T00:29:15.980Z,-4.3
2018-02-22T00:30:35.862Z,-4.3
2018-02-22T00:31:55.778Z,-4.4
2018-02-22T00:33:15.667Z,-4.4
2018-02-22T00:34:38.014Z,-4.4
2018-02-22T00:35:57.859Z,-4.5
2018-02-22T00:37:17.678Z,-4.5
2018-02-22T00:38:45.128Z,-4.5
2018-02-22T00:40:05.025Z,-4.5
2018-02-22T00:41:24.910Z,-4.5
2018-02-22T00:42:44.747Z,-4.5
2018-02-22T00:44:04.624Z,-4.5
2018-02-22T00:45:24.494Z,-4.5
2018-02-22T00:46:46.885Z,-4.5
2018-02-22T00:48:09.283Z,-4.5
2018-02-22T00:49:34.172Z,-4.6
2018-02-22T00:50:56.535Z,-4.6
2018-02-22T00:52:16.426Z,-4.6
2018-02-22T00:53:38.787Z,-4.7
2018-02-22T00:54:58.614Z,-4.7
2018-02-22T00:56:18.478Z,-4.7
2018-02-22T00:57:40.893Z,-4.8
2018-02-22T00:59:00.734Z,-4.8
2018-02-22T01:00:23.086Z,-4.8
2018-02-22T01:01:42.930Z,-4.9
2018-02-22T01:03:02.775Z,-4.9
2018-02-22T01:04:22.601Z,-4.9
2018-02-22T01:05:42.487Z,-4.9
2018-02-22T01:07:04.941Z,-5
2018-02-22T01:08:24.809Z,-5
2018-02-22T01:09:44.637Z,-5.1
2018-02-22T01:11:04.521Z,-5
2018-02-22T01:12:31.995Z,-4.9
2018-02-22T01:13:54.412Z,-4.8
2018-02-22T01:15:14.268Z,-4.8
2018-02-22T01:16:36.668Z,-4.7
2018-02-22T01:17:56.510Z,-4.7
2018-02-22T01:19:16.355Z,-4.7
2018-02-22T01:20:36.208Z,-4.7
2018-02-22T01:21:56.037Z,-4.8
2018-02-22T01:23:20.912Z,-4.8
2018-02-22T01:24:40.763Z,-4.8
2018-02-22T01:26:08.176Z,-4.8
2018-02-22T01:27:28.041Z,-4.9
2018-02-22T01:28:47.916Z,-4.9
2018-02-22T01:30:12.879Z,-5
2018-02-22T01:31:32.700Z,-5
2018-02-22T01:32:52.528Z,-5
2018-02-22T01:34:17.471Z,-5.1
2018-02-22T01:35:37.379Z,-5.1
2018-02-22T01:37:02.315Z,-5.2
2018-02-22T01:38:22.155Z,-5.2
2018-02-22T01:39:57.184Z,-5.3
2018-02-22T01:41:17.052Z,-5.3
2018-02-22T01:42:44.466Z,-5.3
2018-02-22T01:44:06.874Z,-5.2
2018-02-22T01:45:26.726Z,-5.3
2018-02-22T01:46:46.585Z,-5.3
2018-02-22T01:48:06.422Z,-5.4
2018-02-22T01:49:26.318Z,-5.4
2018-02-22T01:50:48.676Z,-5.4
2018-02-22T01:52:18.695Z,-5.4
2018-02-22T01:53:53.766Z,-5.5
2018-02-22T01:55:13.623Z,-5.5
2018-02-22T01:56:33.462Z,-5.6
2018-02-22T01:57:53.356Z,-5.6
2018-02-22T01:59:13.179Z,-5.6
2018-02-22T02:00:33.050Z,-5.7
2018-02-22T02:01:57.941Z,-5.7
2018-02-22T02:03:17.795Z,-5.7
2018-02-22T02:04:37.677Z,-5.7
2018-02-22T02:06:02.625Z,-5.7
2018-02-22T02:07:37.671Z,-5.7
2018-02-22T02:08:57.563Z,-5.8
2018-02-22T02:10:19.938Z,-5.8
2018-02-22T02:11:42.342Z,-5.9
2018-02-22T02:13:02.188Z,-5.9
2018-02-22T02:14:22.044Z,-5.9
2018-02-22T02:15:44.452Z,-6
2018-02-22T02:17:11.869Z,-6
2018-02-22T02:18:36.775Z,-5.9
2018-02-22T02:19:59.166Z,-6
2018-02-22T02:21:19.004Z,-6
2018-02-22T02:22:41.422Z,-6
2018-02-22T02:24:03.791Z,-6
2018-02-22T02:25:26.207Z,-6.1
2018-02-22T02:26:46.023Z,-6.1
2018-02-22T02:28:10.953Z,-6.1
2018-02-22T02:29:35.832Z,-6.1
2018-02-22T02:30:58.193Z,-6.2
2018-02-22T02:32:18.039Z,-6.3
2018-02-22T02:33:37.871Z,-6.3
2018-02-22T02:34:57.749Z,-6.3
2018-02-22T02:36:20.182Z,-6.3
2018-02-22T02:37:42.541Z,-6.3
2018-02-22T02:39:02.382Z,-6.3
2018-02-22T02:40:22.211Z,-6.3
2018-02-22T02:41:49.648Z,-6.4
2018-02-22T02:43:12.033Z,-6.4
2018-02-22T02:44:31.928Z,-6.4
2018-02-22T02:45:54.295Z,-6.4
2018-02-22T02:47:14.131Z,-6.4
2018-02-22T02:48:34.007Z,-6.4
2018-02-22T02:49:56.361Z,-6.4
2018-02-22T02:51:21.277Z,-6.4
2018-02-22T02:52:41.133Z,-6.5
2018-02-22T02:54:00.989Z,-6.5
2018-02-22T02:55:20.826Z,-6.5
2018-02-22T02:56:40.699Z,-6.5
2018-02-22T02:58:00.574Z,-6.5
2018-02-22T02:59:20.456Z,-6.5
2018-02-22T03:00:45.426Z,-6.5
2018-02-22T03:02:07.785Z,-6.4
2018-02-22T03:03:30.173Z,-6.3
2018-02-22T03:04:52.526Z,-6.3
2018-02-22T03:06:14.983Z,-6.2
2018-02-22T03:07:34.903Z,-6.3
2018-02-22T03:08:57.255Z,-6.3
2018-02-22T03:10:19.647Z,-6.3
2018-02-22T03:11:39.510Z,-6.4
2018-02-22T03:13:06.991Z,-6.4
2018-02-22T03:14:26.846Z,-6.5
2018-02-22T03:15:49.208Z,-6.6
2018-02-22T03:17:09.035Z,-6.6
2018-02-22T03:18:31.399Z,-6.6
2018-02-22T03:19:51.230Z,-6.6
2018-02-22T03:21:11.055Z,-6.6
2018-02-22T03:22:33.413Z,-6.5
2018-02-22T03:23:53.250Z,-6.5
2018-02-22T03:25:15.667Z,-6.4
2018-02-22T03:26:35.581Z,-6.4
2018-02-22T03:28:00.515Z,-6.5
2018-02-22T03:29:25.458Z,-6.5
2018-02-22T03:30:50.414Z,-6.5
2018-02-22T03:32:12.834Z,-6.6
2018-02-22T03:33:32.674Z,-6.6
2018-02-22T03:34:52.525Z,-6.7
2018-02-22T03:36:14.933Z,-6.7
2018-02-22T03:37:39.853Z,-6.7
2018-02-22T03:39:04.773Z,-6.8
2018-02-22T03:40:27.168Z,-6.7
2018-02-22T03:41:47.039Z,-6.8
2018-02-22T03:43:09.413Z,-6.8
2018-02-22T03:44:31.833Z,-6.8
2018-02-22T03:45:54.221Z,-6.9
2018-02-22T03:47:16.602Z,-6.9
2018-02-22T03:48:36.494Z,-6.9
2018-02-22T03:49:58.895Z,-7
2018-02-22T03:51:26.340Z,-7
2018-02-22T03:52:46.194Z,-7
2018-02-22T03:54:08.572Z,-7
2018-02-22T03:55:36.002Z,-6.9
2018-02-22T03:56:58.403Z,-6.9
2018-02-22T03:58:20.781Z,-7
2018-02-22T03:59:45.698Z,-7
2018-02-22T04:01:05.551Z,-7
2018-02-22T04:02:33.028Z,-7
2018-02-22T04:03:57.930Z,-7
2018-02-22T04:05:17.784Z,-7
2018-02-22T04:06:37.603Z,-7
2018-02-22T04:07:59.993Z,-7
2018-02-22T04:09:19.878Z,-7
2018-02-22T04:10:39.720Z,-6.9
2018-02-22T04:11:59.600Z,-6.9
2018-02-22T04:13:22.001Z,-6.9
2018-02-22T04:14:46.927Z,-7
2018-02-22T04:16:09.315Z,-7
2018-02-22T04:17:29.186Z,-7
2018-02-22T04:18:54.071Z,-7.1
2018-02-22T04:20:24.049Z,-7.1
2018-02-22T04:21:46.424Z,-7
2018-02-22T04:23:06.249Z,-7
2018-02-22T04:24:26.097Z,-7.1
2018-02-22T04:25:45.935Z,-7.1
2018-02-22T04:27:05.760Z,-7.2
2018-02-22T04:28:25.608Z,-7.2
2018-02-22T04:29:45.492Z,-7.2
2018-02-22T04:31:07.925Z,-7.2
2018-02-22T04:32:27.747Z,-7.2
2018-02-22T04:33:50.164Z,-7.2
2018-02-22T04:35:12.610Z,-7.2
2018-02-22T04:36:32.490Z,-7.3
2018-02-22T04:37:52.367Z,-7.2
2018-02-22T04:39:14.733Z,-7.2
2018-02-22T04:40:34.591Z,-7.2
2018-02-22T04:42:02.080Z,-7.2
2018-02-22T04:43:21.931Z,-7.2
2018-02-22T04:44:44.310Z,-7.2
2018-02-22T04:46:04.133Z,-7.2
2018-02-22T04:47:31.561Z,-7.2
2018-02-22T04:48:51.443Z,-7.2
2018-02-22T04:50:13.823Z,-7.1
2018-02-22T04:51:41.275Z,-7.1
2018-02-22T04:53:01.106Z,-7.2
2018-02-22T04:54:26.001Z,-7.2
2018-02-22T04:55:48.421Z,-7.3
2018-02-22T04:57:10.766Z,-7.3
2018-02-22T04:58:33.173Z,-7.3
2018-02-22T04:59:52.982Z,-7.3
2018-02-22T05:01:15.378Z,-7.3
2018-02-22T05:02:40.303Z,-7.3
2018-02-22T05:04:00.221Z,-7.3
2018-02-22T05:05:25.169Z,-7.3
2018-02-22T05:06:45.029Z,-7.3
2018-02-22T05:08:04.877Z,-7.3
2018-02-22T05:09:27.236Z,-7.3
2018-02-22T05:10:47.101Z,-7.3
2018-02-22T05:12:06.930Z,-7.4
2018-02-22T05:13:26.757Z,-7.4
2018-02-22T05:14:51.651Z,-7.4
2018-02-22T05:16:11.472Z,-7.4
2018-02-22T05:17:31.340Z,-7.4
2018-02-22T05:18:51.225Z,-7.4
2018-02-22T05:20:11.054Z,-7.5
2018-02-22T05:21:30.879Z,-7.5
2018-02-22T05:22:50.732Z,-7.5
2018-02-22T05:24:10.600Z,-7.5
2018-02-22T05:25:33.021Z,-7.5
2018-02-22T05:26:55.415Z,-7.6
2018-02-22T05:28:15.368Z,-7.6
2018-02-22T05:29:47.944Z,-7.6
2018-02-22T05:31:10.350Z,-7.6
2018-02-22T05:32:32.700Z,-7.7
2018-02-22T05:33:52.575Z,-7.7
2018-02-22T05:35:12.448Z,-7.6
2018-02-22T05:36:32.293Z,-7.7
2018-02-22T05:37:52.123Z,-7.7
2018-02-22T05:39:14.513Z,-7.8
2018-02-22T05:40:34.401Z,-7.9
2018-02-22T05:41:54.264Z,-7.8
2018-02-22T05:43:19.212Z,-7.8
2018-02-22T05:44:41.619Z,-7.8
2018-02-22T05:46:01.453Z,-7.9
2018-02-22T05:47:21.341Z,-7.9
2018-02-22T05:48:41.194Z,-7.9
2018-02-22T05:50:01.028Z,-7.9
2018-02-22T05:51:20.873Z,-7.9
2018-02-22T05:52:40.740Z,-7.9
2018-02-22T05:54:00.591Z,-8
2018-02-22T05:55:25.500Z,-8
2018-02-22T05:56:45.410Z,-8
2018-02-22T05:58:05.300Z,-7.9
2018-02-22T05:59:30.219Z,-7.9
2018-02-22T06:00:55.140Z,-7.9
2018-02-22T06:02:17.494Z,-7.9
2018-02-22T06:03:42.454Z,-7.9
2018-02-22T06:05:02.306Z,-7.9
2018-02-22T06:06:22.181Z,-7.9
2018-02-22T06:07:44.573Z,-7.9
2018-02-22T06:09:07.038Z,-7.9
2018-02-22T06:10:26.875Z,-7.9
2018-02-22T06:11:46.714Z,-7.9
2018-02-22T06:13:06.549Z,-7.9
2018-02-22T06:14:28.909Z,-7.9
2018-02-22T06:15:48.749Z,-7.9
2018-02-22T06:17:11.114Z,-7.8
2018-02-22T06:18:30.930Z,-7.9
2018-02-22T06:19:55.817Z,-7.8
2018-02-22T06:21:18.178Z,-7.8
2018-02-22T06:22:38.007Z,-7.9
2018-02-22T06:23:57.828Z,-7.9
2018-02-22T06:25:17.658Z,-7.8
2018-02-22T06:26:37.487Z,-7.8
2018-02-22T06:27:59.929Z,-7.9
2018-02-22T06:29:22.336Z,-7.9
2018-02-22T06:30:42.181Z,-7.8
2018-02-22T06:32:02.020Z,-7.7
2018-02-22T06:33:24.412Z,-7.7
2018-02-22T06:34:44.251Z,-7.7
2018-02-22T06:36:11.701Z,-7.7
2018-02-22T06:37:34.060Z,-7.7
2018-02-22T06:38:53.907Z,-7.6
2018-02-22T06:40:13.729Z,-7.5
2018-02-22T06:41:33.556Z,-7.5
2018-02-22T06:42:55.936Z,-7.5
2018-02-22T06:44:18.357Z,-7.5
2018-02-22T06:45:38.188Z,-7.5
2018-02-22T06:47:00.581Z,-7.4
2018-02-22T06:48:28.008Z,-7.4
2018-02-22T06:49:47.831Z,-7.4
2018-02-22T06:51:10.214Z,-7.3
2018-02-22T06:52:30.177Z,-7.2
2018-02-22T06:53:50.098Z,-7.1
2018-02-22T06:55:09.971Z,-7
2018-02-22T06:56:34.935Z,-6.9
2018-02-22T06:57:54.873Z,-6.8
2018-02-22T06:59:14.728Z,-6.7
2018-02-22T07:00:39.677Z,-6.6
2018-02-22T07:01:59.508Z,-6.6
2018-02-22T07:03:19.393Z,-6.5
2018-02-22T07:04:39.239Z,-6.4
2018-02-22T07:06:04.122Z,-6.3
2018-02-22T07:07:26.533Z,-6.2
2018-02-22T07:08:48.895Z,-6.2
2018-02-22T07:10:08.738Z,-6.2
2018-02-22T07:11:28.611Z,-6.1
2018-02-22T07:12:48.443Z,-6
2018-02-22T07:14:08.286Z,-6
2018-02-22T07:15:28.110Z,-5.9
2018-02-22T07:16:50.490Z,-5.8
2018-02-22T07:18:10.403Z,-5.8
2018-02-22T07:19:30.310Z,-5.7
2018-02-22T07:20:50.224Z,-5.7
2018-02-22T07:22:12.592Z,-5.7
2018-02-22T07:23:40.029Z,-5.7
2018-02-22T07:25:10.043Z,-5.6
2018-02-22T07:26:40.064Z,-5.5
2018-02-22T07:28:02.440Z,-5.5
2018-02-22T07:29:22.293Z,-5.5
2018-02-22T07:30:42.172Z,-5.5
2018-02-22T07:32:02.024Z,-5.4
2018-02-22T07:33:26.930Z,-5.3
2018-02-22T07:34:49.311Z,-5.3
2018-02-22T07:36:09.152Z,-5.3
2018-02-22T07:37:31.512Z,-5.2
2018-02-22T07:38:51.363Z,-5.2
2018-02-22T07:40:13.756Z,-5.2
2018-02-22T07:41:38.702Z,-5.1
2018-02-22T07:42:58.549Z,-5
2018-02-22T07:44:20.903Z,-5
2018-02-22T07:45:45.811Z,-5
2018-02-22T07:47:13.248Z,-4.9
2018-02-22T07:48:33.087Z,-4.8
2018-02-22T07:49:52.907Z,-4.8
2018-02-22T07:51:17.807Z,-4.8
2018-02-22T07:52:37.658Z,-4.7
2018-02-22T07:53:57.478Z,-4.7
2018-02-22T07:55:17.355Z,-4.6
2018-02-22T07:56:37.198Z,-4.6
2018-02-22T07:58:02.095Z,-4.6
2018-02-22T07:59:26.979Z,-4.5
2018-02-22T08:00:46.810Z,-4.5
2018-02-22T08:02:06.646Z,-4.5
2018-02-22T08:03:26.509Z,-4.4
2018-02-22T08:04:53.938Z,-4.3
2018-02-22T08:06:16.307Z,-4.3
2018-02-22T08:07:41.196Z,-4.4
2018-02-22T08:09:01.090Z,-4.3
2018-02-22T08:10:20.932Z,-4.3
2018-02-22T08:11:45.814Z,-4.2
2018-02-22T08:13:05.672Z,-4.1
2018-02-22T08:14:25.545Z,-3.9
2018-02-22T08:15:52.998Z,-3.9
2018-02-22T08:17:15.445Z,-3.8
2018-02-22T08:18:35.317Z,-3.8
2018-02-22T08:19:57.677Z,-3.6
2018-02-22T08:21:17.565Z,-3.6
2018-02-22T08:22:39.962Z,-3.4
2018-02-22T08:24:04.954Z,-3.3
2018-02-22T08:25:24.822Z,-3.2
2018-02-22T08:26:44.659Z,-3
2018-02-22T08:28:04.557Z,-3
2018-02-22T08:29:24.445Z,-2.9
2018-02-22T08:30:44.286Z,-2.9
2018-02-22T08:32:09.166Z,-2.7
2018-02-22T08:33:39.144Z,-2.8
2018-02-22T08:35:04.092Z,-3
2018-02-22T08:36:23.934Z,-2.9
2018-02-22T08:37:43.760Z,-2.7
2018-02-22T08:39:03.587Z,-2.8
2018-02-22T08:40:25.995Z,-2.7
2018-02-22T08:41:48.376Z,-2.7
2018-02-22T08:43:08.192Z,-2.5
2018-02-22T08:44:30.581Z,-2.3
2018-02-22T08:45:58.051Z,-2.1
2018-02-22T08:47:17.908Z,-1.7
2018-02-22T08:48:37.743Z,-1.7
2018-02-22T08:49:57.602Z,-2
2018-02-22T08:51:22.489Z,-2.1
2018-02-22T08:52:44.980Z,-1.8
2018-02-22T08:54:04.828Z,-1.5
2018-02-22T08:55:27.232Z,-1.2
2018-02-22T08:56:49.646Z,-1.4
2018-02-22T08:58:09.574Z,-1.6
2018-02-22T08:59:34.528Z,-1.7
2018-02-22T09:00:54.417Z,-1.5
2018-02-22T09:02:14.250Z,-1.4
2018-02-22T09:03:34.105Z,-1.3
2018-02-22T09:04:59.009Z,-1.4
2018-02-22T09:06:18.846Z,-1.3
2018-02-22T09:07:41.244Z,-1.5
2018-02-22T09:09:06.125Z,-1.3
2018-02-22T09:10:26.002Z,-1.2
2018-02-22T09:11:48.385Z,-1.4
2018-02-22T09:13:13.255Z,-1.2
2018-02-22T09:14:35.680Z,-1.3
2018-02-22T09:15:55.575Z,-1.4
2018-02-22T09:17:20.550Z,-1.5
2018-02-22T09:18:40.451Z,-1.5
2018-02-22T09:20:02.845Z,-1.4
2018-02-22T09:21:25.250Z,-1
2018-02-22T09:22:45.112Z,-0.9
2018-02-22T09:24:05.000Z,-0.9
2018-02-22T09:25:27.380Z,-1.1
2018-02-22T09:26:49.763Z,-1
2018-02-22T09:28:09.614Z,-0.9
2018-02-22T09:29:29.511Z,-0.9
2018-02-22T09:30:49.428Z,-0.6
2018-02-22T09:32:14.334Z,-0.7
2018-02-22T09:33:44.328Z,-1
2018-02-22T09:35:04.151Z,-0.6
2018-02-22T09:36:39.176Z,-0.4
2018-02-22T09:37:59.003Z,-0.3
2018-02-22T09:39:28.951Z,-0.4
2018-02-22T09:40:48.830Z,-0.7
2018-02-22T09:42:13.790Z,-0.9
2018-02-22T09:43:33.675Z,-1
2018-02-22T09:44:58.568Z,-0.9
2018-02-22T09:46:18.391Z,-1
2018-02-22T09:47:38.212Z,-1
2018-02-22T09:48:58.045Z,-1.1
2018-02-22T09:50:20.541Z,-1.1
2018-02-22T09:51:42.955Z,-1.1
2018-02-22T09:53:05.349Z,-1.2
2018-02-22T09:54:27.707Z,-1.2
2018-02-22T09:55:50.135Z,-1.2
2018-02-22T09:57:10.001Z,-1.3
2018-02-22T09:58:29.945Z,-1.2
2018-02-22T09:59:52.354Z,-1.3
2018-02-22T10:01:12.233Z,-1.4
2018-02-22T10:02:37.115Z,-1.4
2018-02-22T10:03:56.945Z,-1.4
2018-02-22T10:05:16.832Z,-1.5
2018-02-22T10:06:44.256Z,-1.5
2018-02-22T10:08:04.129Z,-1.3
2018-02-22T10:09:23.955Z,-1.2
2018-02-22T10:10:46.324Z,-1.3
2018-02-22T10:12:11.214Z,-1.4
2018-02-22T10:13:36.110Z,-1.4
2018-02-22T10:14:55.982Z,-1.4
2018-02-22T10:16:15.804Z,-1.4
2018-02-22T10:17:35.644Z,-1.4
2018-02-22T10:18:55.526Z,-1.4
2018-02-22T10:20:22.953Z,-1.6
2018-02-22T10:21:42.799Z,-1.5
2018-02-22T10:23:05.239Z,-1.4
2018-02-22T10:24:25.155Z,-1.3
2018-02-22T10:25:52.582Z,-1.4
2018-02-22T10:27:20.134Z,-1.5
2018-02-22T10:28:40.090Z,-1.4
2018-02-22T10:30:02.471Z,-1.3
2018-02-22T10:31:22.353Z,-1.2
2018-02-22T10:32:44.736Z,-1.2
2018-02-22T10:34:07.087Z,-1.3
2018-02-22T10:35:32.001Z,-1.2
2018-02-22T10:37:04.486Z,-1
2018-02-22T10:38:24.359Z,-1
2018-02-22T10:39:51.792Z,-1.1
2018-02-22T10:41:11.628Z,-1.1
2018-02-22T10:42:31.487Z,-1
2018-02-22T10:43:53.907Z,-0.9
2018-02-22T10:45:13.751Z,-0.9
2018-02-22T10:46:33.575Z,-1
2018-02-22T10:47:53.438Z,-0.9
2018-02-22T10:49:20.974Z,-1
2018-02-22T10:50:40.811Z,-0.9
2018-02-22T10:52:00.674Z,-1.1
2018-02-22T10:53:23.115Z,-1.1
2018-02-22T10:54:42.938Z,-1.1
2018-02-22T10:56:02.760Z,-1.2
2018-02-22T10:57:22.659Z,-1.4
2018-02-22T10:58:42.495Z,-1.4
2018-02-22T11:00:12.501Z,-1.4
2018-02-22T11:01:34.910Z,-1.4
2018-02-22T11:02:59.836Z,-1.5
2018-02-22T11:04:19.683Z,-1.5
2018-02-22T11:05:39.572Z,-1.5
2018-02-22T11:07:02.004Z,-1.4
2018-02-22T11:08:26.923Z,-1.4
2018-02-22T11:09:51.821Z,-1.4
2018-02-22T11:11:11.693Z,-1.2
2018-02-22T11:12:31.509Z,-0.9
2018-02-22T11:14:01.484Z,-0.6
2018-02-22T11:15:21.393Z,-0.5
2018-02-22T11:16:41.216Z,-0.2
2018-02-22T11:18:06.149Z,0.1
2018-02-22T11:19:31.055Z,0.1
2018-02-22T11:20:53.424Z,-0.1
2018-02-22T11:22:13.247Z,-0.1
2018-02-22T11:23:33.056Z,0.1
2018-02-22T11:24:52.884Z,0
2018-02-22T11:26:15.296Z,0.1
2018-02-22T11:27:40.238Z,0.1
2018-02-22T11:29:02.585Z,-0.1
2018-02-22T11:30:22.442Z,0
2018-02-22T11:31:47.401Z,0
2018-02-22T11:33:07.239Z,0
2018-02-22T11:34:27.072Z,-0.1
2018-02-22T11:35:51.945Z,0.1
2018-02-22T11:37:11.757Z,0.3
2018-02-22T11:38:41.712Z,0.2
2018-02-22T11:40:04.038Z,0.2
2018-02-22T11:41:28.934Z,0.3
2018-02-22T11:42:56.366Z,0.6
2018-02-22T11:44:21.278Z,0.3
2018-02-22T11:45:43.682Z,-0.2
2018-02-22T11:47:03.547Z,-0.5
2018-02-22T11:48:23.456Z,-0.7
2018-02-22T11:49:43.298Z,-0.7
2018-02-22T11:51:13.251Z,-0.7
2018-02-22T11:52:33.067Z,-0.8
2018-02-22T11:53:52.942Z,-0.9
2018-02-22T11:55:17.830Z,-0.9
2018-02-22T11:56:37.643Z,-0.9
2018-02-22T11:58:00.026Z,-0.8
2018-02-22T11:59:19.881Z,-0.6
2018-02-22T12:00:39.726Z,-0.7
2018-02-22T12:02:02.108Z,-0.6
2018-02-22T12:03:24.484Z,-0.4
2018-02-22T12:04:44.383Z,-0.2
2018-02-22T12:06:04.211Z,0.1
2018-02-22T12:07:24.016Z,0.2
2018-02-22T12:08:43.862Z,0.2
2018-02-22T12:10:03.686Z,0.1
2018-02-22T12:11:23.542Z,0
2018-02-22T12:12:43.363Z,0.1
2018-02-22T12:14:03.179Z,0.2
2018-02-22T12:15:22.999Z,0.3
2018-02-22T12:16:45.418Z,0.6
2018-02-22T12:18:05.287Z,0.8
2018-02-22T12:19:30.227Z,1
2018-02-22T12:20:50.082Z,1.3
2018-02-22T12:22:15.010Z,1.4
2018-02-22T12:23:34.864Z,1.7
2018-02-22T12:24:54.723Z,1.7
2018-02-22T12:26:14.569Z,1.8
2018-02-22T12:27:34.457Z,1.8
2018-02-22T12:28:54.288Z,1.6
2018-02-22T12:30:19.252Z,1.6
2018-02-22T12:31:41.661Z,1.5
2018-02-22T12:33:04.038Z,1.3
2018-02-22T12:34:26.397Z,1.2
2018-02-22T12:35:46.253Z,1.1
2018-02-22T12:37:06.090Z,1.1
2018-02-22T12:38:25.957Z,0.8
2018-02-22T12:39:45.777Z,0.5
2018-02-22T12:41:08.124Z,0.5
2018-02-22T12:42:30.528Z,2.6
2018-02-22T12:43:52.877Z,4.9
2018-02-22T12:45:15.288Z,7.9
2018-02-22T12:46:40.183Z,9.7
2018-02-22T12:48:02.560Z,11.7
2018-02-22T12:49:22.440Z,12.9
2018-02-22T12:50:42.302Z,11.7
2018-02-22T12:52:09.744Z,13.4
2018-02-22T12:53:29.587Z,14.5
2018-02-22T12:54:49.474Z,15.1
2018-02-22T12:56:09.344Z,14.9
2018-02-22T12:57:44.368Z,15.5
2018-02-22T12:59:09.272Z,17.7
2018-02-22T13:00:29.167Z,18.1
2018-02-22T13:01:51.534Z,18.4
2018-02-22T13:03:11.427Z,17.5
2018-02-22T13:04:31.272Z,16
2018-02-22T13:06:01.232Z,16.4
2018-02-22T13:07:21.099Z,16.7
2018-02-22T13:08:48.521Z,16.8
2018-02-22T13:10:08.394Z,17.7
2018-02-22T13:11:33.278Z,17.9
2018-02-22T13:12:53.150Z,18.5
2018-02-22T13:14:12.973Z,18.7
2018-02-22T13:15:32.841Z,18.9
2018-02-22T13:16:52.675Z,19.7
2018-02-22T13:18:15.049Z,18.6
2018-02-22T13:19:47.583Z,18.3
2018-02-22T13:21:09.988Z,18.9
2018-02-22T13:22:34.926Z,20.2
2018-02-22T13:23:57.299Z,20.5
2018-02-22T13:25:19.647Z,19.6
2018-02-22T13:26:42.066Z,19.9
2018-02-22T13:28:01.895Z,20.7
2018-02-22T13:29:36.936Z,20.6
2018-02-22T13:31:06.892Z,20.8
2018-02-22T13:32:26.719Z,19.2
2018-02-22T13:33:49.101Z,18.5
2018-02-22T13:35:13.997Z,17.5
2018-02-22T13:36:33.854Z,18.7
2018-02-22T13:37:53.775Z,19.1
2018-02-22T13:39:13.650Z,16.8
2018-02-22T13:40:38.557Z,15.4
2018-02-22T13:42:11.079Z,11.8
2018-02-22T13:43:30.919Z,8.4
2018-02-22T13:44:53.248Z,6.7
2018-02-22T13:46:15.630Z,8.1
2018-02-22T13:47:53.189Z,7.2
2018-02-22T13:49:13.059Z,6.1
2018-02-22T13:50:35.446Z,5.8
2018-02-22T13:51:55.306Z,7.1
2018-02-22T13:53:15.148Z,6.9
2018-02-22T13:54:40.076Z,8.3
2018-02-22T13:55:59.977Z,10.1
2018-02-22T13:57:19.830Z,8.1
2018-02-22T13:58:42.187Z,7.7
2018-02-22T14:00:02.019Z,6.4
2018-02-22T14:01:21.842Z,5.8
2018-02-22T14:02:41.650Z,6.5
2018-02-22T14:04:04.004Z,6.9
2018-02-22T14:05:23.826Z,7.5
2018-02-22T14:06:43.637Z,6.3
2018-02-22T14:08:03.492Z,5.1
2018-02-22T14:09:23.328Z,3.8
2018-02-22T14:10:45.697Z,3.1
2018-02-22T14:12:10.605Z,2.6
2018-02-22T14:13:32.950Z,2.4
2018-02-22T14:14:52.749Z,2.2
2018-02-22T14:16:20.198Z,2.5
2018-02-22T14:17:42.530Z,2.6
2018-02-22T14:19:04.946Z,2.5
2018-02-22T14:20:24.817Z,2
2018-02-22T14:21:49.714Z,1.7
2018-02-22T14:23:09.550Z,1.7
2018-02-22T14:24:31.936Z,1.6
2018-02-22T14:25:51.798Z,1.4
2018-02-22T14:27:21.724Z,1.2
2018-02-22T14:28:41.538Z,1.3
2018-02-22T14:30:03.904Z,1.5
2018-02-22T14:31:33.850Z,1.7
2018-02-22T14:32:53.672Z,1.7
2018-02-22T14:34:13.491Z,2
2018-02-22T14:35:38.409Z,2.2
2018-02-22T14:36:58.220Z,2.2
2018-02-22T14:38:28.188Z,2
2018-02-22T14:39:48.043Z,2
2018-02-22T14:41:10.449Z,1.8
2018-02-22T14:42:37.886Z,2.1
2018-02-22T14:44:00.255Z,2.1
2018-02-22T14:45:22.648Z,1.8
2018-02-22T14:46:55.139Z,1.6
2018-02-22T14:48:15.013Z,1.5
2018-02-22T14:49:37.363Z,1.3
2018-02-22T14:50:57.181Z,1.1
2018-02-22T14:52:19.537Z,0.9
2018-02-22T14:53:41.956Z,0.8
2018-02-22T14:55:06.901Z,0.6
2018-02-22T14:56:34.288Z,0.4
2018-02-22T14:57:54.143Z,0.2
2018-02-22T14:59:19.028Z,0
2018-02-22T15:00:38.891Z,0
2018-02-22T15:02:01.280Z,0.1
2018-02-22T15:03:21.155Z,0
2018-02-22T15:04:43.555Z,-0.1
2018-02-22T15:06:03.410Z,-0.1
2018-02-22T15:07:38.433Z,-0.2
2018-02-22T15:08:58.257Z,-0.2
2018-02-22T15:10:18.088Z,-0.3
2018-02-22T15:11:42.993Z,-0.2
2018-02-22T15:13:07.868Z,-0.3
2018-02-22T15:14:30.241Z,-0.2
2018-02-22T15:15:55.156Z,-0.2
2018-02-22T15:17:25.165Z,-0.2
2018-02-22T15:18:45.035Z,-0.3
2018-02-22T15:20:04.934Z,-0.4
2018-02-22T15:21:27.308Z,-0.4
2018-02-22T15:22:49.681Z,-0.3
2018-02-22T15:24:12.059Z,-0.1
2018-02-22T15:25:31.950Z,0
2018-02-22T15:26:51.786Z,0
2018-02-22T15:28:11.614Z,0.2
2018-02-22T15:29:36.479Z,0.3
2018-02-22T15:31:03.930Z,0.3
2018-02-22T15:32:23.748Z,0.2
2018-02-22T15:33:43.656Z,0.2
2018-02-22T15:35:06.013Z,0.2
2018-02-22T15:36:25.819Z,0.3
2018-02-22T15:37:48.182Z,0.1
2018-02-22T15:39:08.010Z,-0.2
2018-02-22T15:40:27.857Z,-0.4
2018-02-22T15:41:47.728Z,-0.5
2018-02-22T15:43:07.555Z,-0.6
2018-02-22T15:44:27.396Z,-0.7
2018-02-22T15:45:49.773Z,-0.8
2018-02-22T15:47:24.808Z,-0.9
2018-02-22T15:48:44.630Z,-0.9
2018-02-22T15:50:07.023Z,-0.9
2018-02-22T15:51:29.390Z,-1
2018-02-22T15:52:49.214Z,-1
2018-02-22T15:54:09.093Z,-1
2018-02-22T15:55:31.499Z,-1.1
2018-02-22T15:56:56.413Z,-1.1
2018-02-22T15:58:16.226Z,-1.2
2018-02-22T15:59:38.657Z,-1.2
2018-02-22T16:00:58.504Z,-1.3
2018-02-22T16:02:18.373Z,-1.3
2018-02-22T16:03:43.308Z,-1.4
2018-02-22T16:05:03.175Z,-1.4
2018-02-22T16:06:28.146Z,-1.4
2018-02-22T16:07:50.520Z,-1.4
2018-02-22T16:09:12.933Z,-1.4
2018-02-22T16:10:35.331Z,-1.4
2018-02-22T16:11:55.244Z,-1.5
2018-02-22T16:13:15.166Z,-1.5
2018-02-22T16:14:37.542Z,-1.5
2018-02-22T16:15:57.372Z,-1.5
2018-02-22T16:17:17.204Z,-1.6
2018-02-22T16:18:37.034Z,-1.6
2018-02-22T16:19:56.890Z,-1.7
2018-02-22T16:21:16.756Z,-1.7
2018-02-22T16:22:39.190Z,-1.7
2018-02-22T16:23:59.040Z,-1.7
2018-02-22T16:25:18.897Z,-1.8
2018-02-22T16:26:38.733Z,-1.8
2018-02-22T16:28:03.709Z,-1.9
2018-02-22T16:29:23.539Z,-1.9
2018-02-22T16:30:43.359Z,-2
2018-02-22T16:32:03.183Z,-2.1
2018-02-22T16:33:28.124Z,-2.1
2018-02-22T16:34:50.562Z,-2.1
2018-02-22T16:36:10.462Z,-2.2
2018-02-22T16:37:30.376Z,-2.3
2018-02-22T16:38:50.292Z,-2.3
2018-02-22T16:40:10.184Z,-2.4
2018-02-22T16:41:30.040Z,-2.4
2018-02-22T16:42:49.904Z,-2.5
2018-02-22T16:44:14.850Z,-2.5
2018-02-22T16:45:34.701Z,-2.6
2018-02-22T16:46:57.117Z,-2.6
2018-02-22T16:48:22.042Z,-2.6
2018-02-22T16:49:46.935Z,-2.6
2018-02-22T16:51:06.771Z,-2.6
2018-02-22T16:52:29.168Z,-2.7
2018-02-22T16:53:51.520Z,-2.8
2018-02-22T16:55:16.441Z,-2.8
2018-02-22T16:56:36.276Z,-2.8
2018-02-22T16:57:56.117Z,-2.8
2018-02-22T16:59:15.971Z,-2.9
2018-02-22T17:00:35.836Z,-2.9
2018-02-22T17:01:55.681Z,-2.9
2018-02-22T17:03:15.542Z,-2.9
2018-02-22T17:04:35.414Z,-3
2018-02-22T17:06:00.391Z,-3
2018-02-22T17:07:20.259Z,-2.9
2018-02-22T17:08:40.160Z,-3
2018-02-22T17:10:02.505Z,-3.1
2018-02-22T17:11:22.345Z,-3.1
2018-02-22T17:12:44.713Z,-3.1
2018-02-22T17:14:14.702Z,-3.1
2018-02-22T17:15:37.066Z,-3.2
2018-02-22T17:16:56.901Z,-3.2
2018-02-22T17:18:16.784Z,-3.2
2018-02-22T17:19:39.184Z,-3.1
2018-02-22T17:21:01.595Z,-3.1
2018-02-22T17:22:21.427Z,-3.2
2018-02-22T17:23:41.250Z,-3.2
2018-02-22T17:25:01.099Z,-3.3
2018-02-22T17:26:23.457Z,-3.3
2018-02-22T17:27:43.307Z,-3.3
2018-02-22T17:29:03.195Z,-3.3
2018-02-22T17:30:25.668Z,-3.3
2018-02-22T17:31:45.528Z,-3.3
2018-02-22T17:33:05.433Z,-3.3
2018-02-22T17:34:30.340Z,-3.2
2018-02-22T17:35:52.699Z,-3.2
2018-02-22T17:37:20.135Z,-3.1
2018-02-22T17:38:42.522Z,-3
2018-02-22T17:40:07.457Z,-2.9
2018-02-22T17:41:27.316Z,-2.8
2018-02-22T17:42:49.722Z,-2.7
2018-02-22T17:44:09.615Z,-2.7
2018-02-22T17:45:32.034Z,-2.7
2018-02-22T17:46:51.895Z,-2.7
2018-02-22T17:48:29.499Z,-2.7
2018-02-22T17:49:56.979Z,-2.7
2018-02-22T17:51:19.379Z,-2.7
2018-02-22T17:52:39.201Z,-2.8
2018-02-22T17:54:06.638Z,-2.8
2018-02-22T17:55:26.482Z,-2.9
2018-02-22T17:56:48.899Z,-2.9
2018-02-22T17:58:08.742Z,-3
2018-02-22T17:59:28.556Z,-3
2018-02-22T18:00:48.432Z,-3
2018-02-22T18:02:08.255Z,-3
2018-02-22T18:03:30.651Z,-3
2018-02-22T18:04:50.525Z,-3
2018-02-22T18:06:15.458Z,-2.9
2018-02-22T18:07:37.815Z,-2.8
2018-02-22T18:08:57.634Z,-2.8
2018-02-22T18:10:17.496Z,-2.8
2018-02-22T18:11:37.376Z,-2.8
2018-02-22T18:12:59.778Z,-2.8
2018-02-22T18:14:22.175Z,-2.8
2018-02-22T18:15:41.997Z,-2.9
2018-02-22T18:17:06.924Z,-3
2018-02-22T18:18:26.764Z,-3.1
2018-02-22T18:19:49.124Z,-3.2
2018-02-22T18:21:08.988Z,-3.2
2018-02-22T18:22:28.817Z,-3.2
2018-02-22T18:23:53.703Z,-3.3
2018-02-22T18:25:13.527Z,-3.3